createdAt,value
2018-10-12T00:01:40.788Z,8.45
2018-10-12T00:07:31.586Z,7.68
2018-10-12T00:13:22.540Z,7.72
2018-10-12T00:19:13.393Z,8.05
2018-10-12T00:25:04.306Z,7.64
2018-10-12T00:30:55.206Z,8.14
2018-10-12T00:36:46.017Z,7.72
2018-10-12T00:42:36.931Z,7.53
2018-10-12T00:48:27.806Z,7.3
2018-10-12T00:54:18.705Z,7.35
2018-10-12T01:00:09.587Z,6.92
2018-10-12T01:06:00.452Z,6.16
2018-10-12T01:11:51.350Z,8.07
2018-10-12T01:17:42.252Z,7.71
2018-10-12T01:23:33.140Z,9.15
2018-10-12T01:29:24.017Z,9.64
2018-10-12T01:35:14.897Z,11.05
2018-10-12T01:41:05.789Z,10.71
2018-10-12T01:46:56.676Z,11.41
2018-10-12T01:52:47.643Z,10.7
2018-10-12T01:58:38.468Z,11.51
2018-10-12T02:04:29.391Z,9.97
2018-10-12T02:10:20.220Z,10.58
2018-10-12T02:16:11.113Z,9.83
2018-10-12T02:22:01.988Z,10.21
2018-10-12T02:27:52.871Z,9.74
2018-10-12T02:33:43.771Z,10.64
2018-10-12T02:39:34.651Z,9.76
2018-10-12T02:45:25.570Z,9.75
2018-10-12T02:51:16.407Z,9.51
2018-10-12T02:57:07.282Z,8.56
2018-10-12T03:02:58.155Z,8.44
2018-10-12T03:08:49.057Z,9.31
2018-10-12T03:14:39.917Z,9.83
2018-10-12T03:20:30.865Z,9.28
2018-10-12T03:26:21.812Z,9.82
2018-10-12T03:32:12.597Z,9.82
2018-10-12T03:38:03.465Z,10.64
2018-10-12T03:43:54.349Z,10.26
2018-10-12T03:49:45.240Z,9.65
2018-10-12T03:55:36.105Z,10.62
2018-10-12T04:01:26.979Z,9.93
2018-10-12T04:07:17.890Z,9.79
2018-10-12T04:13:08.830Z,10.69
2018-10-12T04:18:59.656Z,10.7
2018-10-12T04:24:50.585Z,9.54
2018-10-12T04:30:41.417Z,11.44
2018-10-12T04:36:32.307Z,10.74
2018-10-12T04:42:23.158Z,11.13
2018-10-12T04:48:14.034Z,11.63
2018-10-12T04:54:04.980Z,14.98
2018-10-12T04:59:55.814Z,15.13
2018-10-12T05:05:46.678Z,14.22
2018-10-12T05:11:37.602Z,12.8
2018-10-12T05:17:28.489Z,11.23
2018-10-12T05:23:19.341Z,13.23
2018-10-12T05:29:10.185Z,13.94
2018-10-12T05:35:01.093Z,20.63
2018-10-12T05:40:51.952Z,20.64
2018-10-12T05:46:42.830Z,20.17
2018-10-12T05:52:33.751Z,19.78
2018-10-12T05:58:24.583Z,18
2018-10-12T06:04:15.539Z,17.3
2018-10-12T06:10:06.441Z,16.51
2018-10-12T06:15:57.291Z,15.88
2018-10-12T06:21:48.177Z,15.79
2018-10-12T06:27:39.043Z,16.53
2018-10-12T06:33:29.883Z,17.75
2018-10-12T06:39:20.723Z,33.49
2018-10-12T06:45:11.719Z,40.72
2018-10-12T06:51:02.519Z,18.19
2018-10-12T06:56:53.436Z,17.19
2018-10-12T07:02:44.267Z,15.97
2018-10-12T07:08:35.141Z,29.33
2018-10-12T07:14:26.030Z,16.46
2018-10-12T07:20:16.945Z,24.6
2018-10-12T07:26:07.809Z,20.06
2018-10-12T07:31:58.693Z,17.2
2018-10-12T07:37:49.585Z,20.76
2018-10-12T07:43:40.468Z,20.34
2018-10-12T07:49:31.357Z,32.99
2018-10-12T07:55:22.218Z,37.28
2018-10-12T08:01:13.098Z,40.64
2018-10-12T08:07:04.002Z,25.37
2018-10-12T08:12:54.899Z,16.1
2018-10-12T08:18:45.746Z,18.69
2018-10-12T08:24:36.638Z,19.33
2018-10-12T08:30:27.574Z,20.48
2018-10-12T08:36:18.456Z,13.2
2018-10-12T08:42:09.317Z,13.65
2018-10-12T08:48:00.183Z,13.4
2018-10-12T08:53:51.134Z,14.01
2018-10-12T08:59:42.002Z,18.99
2018-10-12T09:05:32.879Z,15.71
2018-10-12T09:11:23.777Z,14.31
2018-10-12T09:17:14.691Z,13.95
2018-10-12T09:23:05.584Z,20.41
2018-10-12T09:28:56.484Z,20.43
2018-10-12T09:34:47.375Z,12.6
2018-10-12T09:40:38.336Z,14.69
2018-10-12T09:46:29.189Z,19.33
2018-10-12T09:52:20.159Z,22.67
2018-10-12T09:58:10.982Z,10.86
2018-10-12T10:04:01.889Z,16.97
2018-10-12T10:09:52.805Z,15.79
2018-10-12T10:15:43.694Z,12.25
2018-10-12T10:21:34.605Z,21.21
2018-10-12T10:27:25.533Z,13.91
2018-10-12T10:33:16.442Z,12.6
2018-10-12T10:39:07.546Z,13.59
2018-10-12T10:44:58.278Z,14.91
2018-10-12T10:50:49.168Z,13.45
2018-10-12T10:56:40.130Z,11.06
2018-10-12T11:02:31.004Z,13.68
2018-10-12T11:08:21.907Z,15.53
2018-10-12T11:14:12.838Z,15.12
2018-10-12T11:20:03.764Z,18.64
2018-10-12T11:25:54.658Z,17.86
2018-10-12T11:31:45.594Z,17.79
2018-10-12T11:37:36.502Z,16.61
2018-10-12T11:43:27.427Z,11.65
2018-10-12T11:49:18.386Z,10.81
2018-10-12T11:55:09.281Z,12.6
2018-10-12T12:01:00.275Z,9.59
2018-10-12T12:06:51.148Z,13.33
2018-10-12T12:12:42.060Z,11.84
2018-10-12T12:18:32.984Z,11.55
2018-10-12T12:24:23.991Z,11.56
2018-10-12T12:30:14.842Z,10.81
2018-10-12T12:36:05.899Z,20.91
2018-10-12T12:41:56.683Z,10.41
2018-10-12T12:47:47.648Z,10.41
2018-10-12T12:53:38.570Z,10.35
2018-10-12T12:59:29.496Z,10.63
2018-10-12T13:05:20.402Z,9.94
2018-10-12T13:11:11.339Z,11.42
2018-10-12T13:17:02.259Z,11.73
2018-10-12T13:22:53.223Z,11.14
2018-10-12T13:28:44.160Z,9.5
2018-10-12T13:34:35.133Z,9.45
2018-10-12T13:40:26.010Z,9.36
2018-10-12T13:46:16.939Z,10.12
2018-10-12T13:52:07.883Z,9.17
2018-10-12T13:57:58.814Z,9.1
2018-10-12T14:03:49.739Z,10
2018-10-12T14:09:40.662Z,11.59
2018-10-12T14:15:31.607Z,11.97
2018-10-12T14:21:22.602Z,12.37
2018-10-12T14:27:13.440Z,11.93
2018-10-12T14:33:04.373Z,13.39
2018-10-12T14:38:55.374Z,12.39
2018-10-12T14:44:46.246Z,14.57
2018-10-12T14:50:37.164Z,15.2
2018-10-12T14:56:28.110Z,13.18
2018-10-12T15:02:19.033Z,11.84
2018-10-12T15:08:09.932Z,11.4
2018-10-12T15:14:00.887Z,9.95
2018-10-12T15:19:52.047Z,9.16
2018-10-12T15:25:42.846Z,8.71
2018-10-12T15:31:33.717Z,9.35
2018-10-12T15:37:24.574Z,9.84
2018-10-12T15:43:15.521Z,9.53
2018-10-12T15:49:06.431Z,10.36
2018-10-12T15:54:57.371Z,12.03
2018-10-12T16:00:48.296Z,10.25
2018-10-12T16:06:39.186Z,10.1
2018-10-12T16:12:30.125Z,9.78
2018-10-12T16:18:21.022Z,10.91
2018-10-12T16:24:12.024Z,11.38
2018-10-12T16:30:02.890Z,12.71
2018-10-12T16:35:53.872Z,12.07
2018-10-12T16:41:44.715Z,11.54
2018-10-12T16:47:35.700Z,10.59
2018-10-12T16:53:26.559Z,10.66
2018-10-12T16:59:17.494Z,10.48
2018-10-12T17:05:08.369Z,10.22
2018-10-12T17:10:59.285Z,10.88
2018-10-12T17:16:50.220Z,10.51
2018-10-12T17:22:41.126Z,11.44
2018-10-12T17:28:32.050Z,11.67
2018-10-12T17:34:22.976Z,12.73
2018-10-12T17:40:13.858Z,13.01
2018-10-12T17:46:04.763Z,12.74
2018-10-12T17:51:55.690Z,12.95
2018-10-12T17:57:46.580Z,11.61
2018-10-12T18:03:37.517Z,12.29
2018-10-12T18:09:28.389Z,11.87
2018-10-12T18:15:19.297Z,11.33
2018-10-12T18:21:10.210Z,11.21
2018-10-12T18:27:01.099Z,9.51
2018-10-12T18:32:52.063Z,10.41
2018-10-12T18:38:42.958Z,11.51
2018-10-12T18:44:33.876Z,10.14
2018-10-12T18:50:24.816Z,11.26
2018-10-12T18:56:15.704Z,10.51
2018-10-12T19:02:06.611Z,11.78
2018-10-12T19:07:57.504Z,11.74
2018-10-12T19:13:48.429Z,10.17
2018-10-12T19:19:39.458Z,12.31
2018-10-12T19:25:30.209Z,11.02
2018-10-12T19:31:21.152Z,9.84
2018-10-12T19:37:12.031Z,20.04
2018-10-12T19:43:02.932Z,14.42
2018-10-12T19:48:53.878Z,12.32
2018-10-12T19:54:44.755Z,13.14
2018-10-12T20:00:35.634Z,11.45
2018-10-12T20:06:26.531Z,11.12
2018-10-12T20:12:17.425Z,10.32
2018-10-12T20:18:08.343Z,10.87
2018-10-12T20:23:59.297Z,11.93
2018-10-12T20:29:50.132Z,11.85
2018-10-12T20:35:41.040Z,10.91
2018-10-12T20:41:32.164Z,10.14
2018-10-12T20:47:22.841Z,11.84
2018-10-12T20:53:13.765Z,10.48
2018-10-12T20:59:04.629Z,10.29
2018-10-12T21:04:55.560Z,10.79
2018-10-12T21:10:46.489Z,14.63
2018-10-12T21:16:37.398Z,15
2018-10-12T21:22:28.271Z,15.55
2018-10-12T21:28:19.271Z,14.34
2018-10-12T21:34:10.026Z,15.75
2018-10-12T21:40:00.951Z,15.89
2018-10-12T21:45:51.909Z,16.09
2018-10-12T21:51:42.811Z,15.48
2018-10-12T21:57:33.698Z,16.43
2018-10-12T22:03:24.519Z,15.59
2018-10-12T22:09:15.462Z,17.95
2018-10-12T22:15:06.337Z,18.82
2018-10-12T22:20:57.260Z,15.88
2018-10-12T22:26:48.095Z,15.98
2018-10-12T22:32:39.003Z,14.94
2018-10-12T22:38:29.902Z,15.27
2018-10-12T22:44:20.797Z,16.31
2018-10-12T22:50:11.718Z,16.21
2018-10-12T22:56:02.591Z,16.84
2018-10-12T23:01:53.482Z,15.92
2018-10-12T23:07:44.363Z,16.92
2018-10-12T23:13:35.282Z,16.96
2018-10-12T23:19:26.140Z,16.41
2018-10-12T23:25:17.080Z,17.26
2018-10-12T23:31:07.950Z,17.27
2018-10-12T23:36:58.804Z,17.2
2018-10-12T23:42:49.694Z,17.19
2018-10-12T23:48:40.610Z,17.45
2018-10-12T23:54:31.500Z,18.15
